Time;durP1;ratioP1;P1;durP2;ratioP2;P2;SDS_P1;SDS_P2;PMS_P1;PMS_P2;Temp;Humidity;BMP_temperature;BMP_pressure;BME280_temperature;BME280_humidity;BME280_pressure;Samples;Min_cycle;Max_cycle;Signal;HPM_P1;HPM_P2
2022/09/25 00:01:50;;;;;;;42.50;30.40;;;;;;;12.43;92.02;100083.63;5093531;28;20495;-64
2022/09/25 00:04:19;;;;;;;43.00;30.33;;;;;;;12.40;92.06;100087.44;5094510;28;20934;-64
2022/09/25 00:06:47;;;;;;;49.47;30.63;;;;;;;12.38;92.39;100091.28;5092503;28;20541;-63
2022/09/25 00:09:18;;;;;;;41.47;29.50;;;;;;;12.32;92.39;100084.69;5094873;28;20489;-64
2022/09/25 00:11:45;;;;;;;44.27;29.57;;;;;;;12.29;92.38;100084.16;5093945;27;20571;-63
2022/09/25 00:14:12;;;;;;;43.13;29.97;;;;;;;12.21;92.70;100079.59;5094841;28;20470;-63
2022/09/25 00:16:40;;;;;;;48.87;29.40;;;;;;;12.19;92.90;100085.09;5094168;28;20567;-65
2022/09/25 00:21:51;;;;;;;39.87;28.83;;;;;;;12.11;93.02;100085.03;5079039;28;20526;-64
2022/09/25 00:24:18;;;;;;;41.40;29.13;;;;;;;12.05;93.33;100086.50;5081455;28;20463;-64
2022/09/25 00:26:45;;;;;;;40.10;28.93;;;;;;;11.94;93.19;100085.88;5079901;28;20472;-63
2022/09/25 00:29:16;;;;;;;40.67;28.03;;;;;;;11.94;93.39;100080.53;5081732;28;20444;-63
2022/09/25 00:31:44;;;;;;;41.60;28.27;;;;;;;11.86;93.47;100082.09;5081355;28;20504;-63
2022/09/25 00:34:11;;;;;;;41.00;28.47;;;;;;;11.79;93.51;100081.03;5081693;28;20440;-64
2022/09/25 00:36:38;;;;;;;36.30;26.30;;;;;;;11.77;93.30;100082.16;5080728;28;21030;-64
2022/09/25 00:39:05;;;;;;;42.20;27.83;;;;;;;11.66;93.91;100084.06;5082131;28;20431;-64
2022/09/25 00:41:31;;;;;;;45.30;28.90;;;;;;;11.62;93.91;100084.56;5080495;28;20491;-64
2022/09/25 00:44:00;;;;;;;44.73;27.37;;;;;;;11.67;94.24;100084.94;5081770;28;20440;-64
2022/09/25 00:46:28;;;;;;;39.63;25.73;;;;;;;11.62;94.54;100082.69;5080909;28;20511;-64
2022/09/25 00:49:00;;;;;;;40.63;25.73;;;;;;;11.67;94.66;100079.59;5080779;28;20457;-64
2022/09/25 00:51:30;;;;;;;45.17;26.03;;;;;;;11.61;94.81;100085.53;5080686;28;20495;-64
2022/09/25 00:53:58;;;;;;;41.23;26.47;;;;;;;11.61;94.92;100086.41;5081485;28;20931;-64
2022/09/25 00:56:26;;;;;;;39.43;26.10;;;;;;;11.63;94.78;100088.88;5079805;28;20484;-64
2022/09/25 00:58:52;;;;;;;38.80;25.33;;;;;;;11.57;94.77;100079.63;5081604;28;20433;-64
2022/09/25 01:01:21;;;;;;;38.97;23.97;;;;;;;11.53;95.14;100080.94;5080956;28;20580;-64
2022/09/25 01:03:47;;;;;;;35.70;24.20;;;;;;;11.49;95.34;100084.91;5080687;28;20440;-64
2022/09/25 01:06:17;;;;;;;39.27;26.40;;;;;;;11.43;95.30;100080.16;5080663;28;20519;-65
2022/09/25 01:08:44;;;;;;;38.27;24.83;;;;;;;11.40;95.10;100077.78;5081113;28;20493;-64
2022/09/25 01:11:10;;;;;;;36.43;23.47;;;;;;;11.42;95.39;100075.78;5080078;28;20500;-63
2022/09/25 01:13:37;;;;;;;35.07;23.67;;;;;;;11.44;95.21;100077.34;5080663;28;20519;-64
2022/09/25 01:16:09;;;;;;;38.57;23.90;;;;;;;11.38;95.10;100079.78;5080363;28;20542;-64
2022/09/25 01:18:46;;;;;;;33.97;23.87;;;;;;;11.34;94.58;100073.88;5079964;28;20469;-64
2022/09/25 01:21:19;;;;;;;34.70;21.60;;;;;;;11.33;94.65;100084.72;5079936;28;20499;-64
2022/09/25 01:24:05;;;;;;;32.07;21.97;;;;;;;11.30;94.90;100083.19;5061108;28;20438;-63
2022/09/25 01:26:49;;;;;;;37.53;22.23;;;;;;;11.29;95.21;100076.16;5066644;28;20830;-64
2022/09/25 01:29:18;;;;;;;30.33;20.80;;;;;;;11.27;95.30;100070.94;5079684;28;20499;-64
2022/09/25 01:31:48;;;;;;;29.37;20.10;;;;;;;11.30;94.96;100080.50;5079572;28;20500;-64
2022/09/25 01:34:18;;;;;;;33.00;21.37;;;;;;;11.32;95.25;100075.88;5080666;28;20472;-64
2022/09/25 01:36:48;;;;;;;33.33;22.60;;;;;;;11.31;94.99;100074.16;5079605;28;20577;-64
2022/09/25 01:39:20;;;;;;;34.10;22.10;;;;;;;11.36;95.17;100076.41;5060309;28;20997;-65
2022/09/25 01:41:50;;;;;;;32.70;19.90;;;;;;;11.39;95.09;100081.47;5070661;28;20498;-64
2022/09/25 01:44:21;;;;;;;32.23;20.30;;;;;;;11.42;95.18;100082.00;5080080;28;20445;-63
2022/09/25 01:46:50;;;;;;;33.60;19.57;;;;;;;11.45;95.25;100075.50;5078988;28;20468;-64
2022/09/25 01:49:22;;;;;;;36.63;19.00;;;;;;;11.46;95.27;100079.88;5079488;28;20472;-64
2022/09/25 01:51:51;;;;;;;32.90;20.83;;;;;;;11.43;95.50;100081.00;5079160;28;20511;-63
2022/09/25 01:54:20;;;;;;;29.30;19.40;;;;;;;11.45;95.16;100083.53;5079920;28;20440;-64
2022/09/25 01:56:50;;;;;;;33.40;19.47;;;;;;;11.41;95.69;100074.94;5079286;28;20523;-63
2022/09/25 01:59:21;;;;;;;26.97;17.80;;;;;;;11.43;95.57;100082.84;5080272;28;20513;-64
2022/09/25 02:01:49;;;;;;;28.73;17.90;;;;;;;11.46;95.92;100080.69;5079017;28;20476;-64
2022/09/25 02:04:20;;;;;;;34.80;19.40;;;;;;;11.51;96.10;100082.94;5079724;28;20480;-63
2022/09/25 02:06:48;;;;;;;29.73;17.73;;;;;;;11.51;95.95;100088.28;5078687;28;20499;-64
2022/09/25 02:09:17;;;;;;;28.03;16.60;;;;;;;11.53;96.18;100080.09;5079642;28;20443;-63
2022/09/25 02:11:48;;;;;;;25.80;15.23;;;;;;;11.52;96.49;100079.25;5078885;28;20511;-63
2022/09/25 02:14:20;;;;;;;36.57;16.97;;;;;;;11.53;96.28;100091.66;5079438;28;20440;-63
2022/09/25 02:16:48;;;;;;;23.23;15.23;;;;;;;11.64;96.38;100082.56;5079242;28;20480;-64
2022/09/25 02:22:05;;;;;;;24.60;14.13;;;;;;;11.72;96.19;100081.78;5078464;28;20540;-63
2022/09/25 02:24:37;;;;;;;27.90;15.17;;;;;;;11.77;95.88;100084.84;5079165;28;20428;-63
2022/09/25 02:27:04;;;;;;;28.67;12.57;;;;;;;11.71;95.93;100088.16;5078413;28;20533;-63
2022/09/25 02:29:32;;;;;;;22.17;12.43;;;;;;;11.79;96.03;100085.56;5079165;28;20477;-64
2022/09/25 02:32:03;;;;;;;21.40;11.00;;;;;;;11.84;95.56;100085.94;5078315;28;20542;-63
2022/09/25 02:34:31;;;;;;;22.10;11.13;;;;;;;11.92;95.61;100090.56;5078690;28;20504;-63
2022/09/25 02:36:58;;;;;;;19.97;11.73;;;;;;;11.94;95.22;100094.75;5077809;28;20469;-63
2022/09/25 02:39:26;;;;;;;15.17;10.93;;;;;;;11.91;95.26;100091.53;5078750;28;20800;-63
2022/09/25 02:42:06;;;;;;;22.10;9.00;;;;;;;11.94;95.08;100097.44;5077626;28;20483;-63
2022/09/25 02:44:41;;;;;;;13.40;9.73;;;;;;;11.92;94.83;100088.72;5078558;28;20460;-63
2022/09/25 02:47:17;;;;;;;18.00;9.70;;;;;;;11.97;94.88;100097.13;5078080;28;20563;-63
2022/09/25 02:49:50;;;;;;;14.10;8.80;;;;;;;11.99;94.70;100089.78;5078174;28;21019;-63
2022/09/25 02:52:23;;;;;;;22.93;9.10;;;;;;;11.94;94.53;100092.06;5078386;28;20853;-62
2022/09/25 02:54:54;;;;;;;17.63;8.03;;;;;;;12.02;94.21;100088.66;5078620;28;20451;-63
2022/09/25 02:57:28;;;;;;;14.27;8.57;;;;;;;12.00;93.94;100082.59;5077012;28;20927;-62
2022/09/25 02:59:59;;;;;;;17.50;8.20;;;;;;;11.93;94.28;100082.38;5079115;28;20902;-63
2022/09/25 03:02:27;;;;;;;12.90;8.23;;;;;;;11.93;93.90;100079.69;5078257;28;20570;-63
2022/09/25 03:04:55;;;;;;;10.73;7.70;;;;;;;11.81;94.20;100080.88;5079187;28;20469;-63
2022/09/25 03:07:22;;;;;;;18.80;9.20;;;;;;;11.79;94.56;100086.41;5077844;28;20583;-63
2022/09/25 03:09:53;;;;;;;18.10;7.70;;;;;;;11.81;94.42;100080.88;5079226;28;20433;-64
2022/09/25 03:12:19;;;;;;;17.10;7.93;;;;;;;11.88;93.85;100088.16;5078146;28;20504;-63
2022/09/25 03:14:46;;;;;;;16.20;7.40;;;;;;;11.97;93.38;100089.09;5079523;28;20456;-63
2022/09/25 03:17:16;;;;;;;19.20;7.67;;;;;;;12.04;93.12;100075.94;5077888;28;20480;-64
2022/09/25 03:19:43;;;;;;;11.80;7.10;;;;;;;11.98;92.95;100073.88;5073650;28;20452;-63
2022/09/25 03:22:10;;;;;;;17.00;6.70;;;;;;;11.85;93.09;100079.56;5078070;28;20480;-63
2022/09/25 03:24:37;;;;;;;12.23;6.23;;;;;;;11.95;93.11;100080.38;5079038;28;20448;-64
2022/09/25 03:27:04;;;;;;;16.43;6.77;;;;;;;11.98;92.68;100077.41;5077577;28;20896;-63
2022/09/25 03:29:30;;;;;;;10.77;6.10;;;;;;;11.90;92.99;100087.16;5078849;28;20505;-63
2022/09/25 03:31:57;;;;;;;14.37;5.87;;;;;;;11.90;92.60;100085.31;5078341;28;20508;-63
2022/09/25 03:34:25;;;;;;;12.40;6.23;;;;;;;11.92;92.48;100083.34;5059015;28;20462;-62
2022/09/25 03:36:51;;;;;;;12.63;5.93;;;;;;;11.83;92.35;100081.56;5077070;28;20492;-62
2022/09/25 03:39:18;;;;;;;17.00;6.23;;;;;;;11.92;92.26;100083.34;5078528;28;20460;-63
2022/09/25 03:41:46;;;;;;;11.60;6.00;;;;;;;12.08;91.65;100071.94;5077842;28;20496;-63
2022/09/25 03:44:13;;;;;;;14.07;4.93;;;;;;;11.97;91.29;100073.03;5079142;28;20476;-63
2022/09/25 03:46:40;;;;;;;13.97;5.23;;;;;;;11.98;91.04;100066.69;5078185;28;20541;-63
2022/09/25 03:49:06;;;;;;;10.03;5.50;;;;;;;12.02;91.09;100072.56;5078213;28;20520;-64
2022/09/25 03:51:34;;;;;;;15.73;5.30;;;;;;;11.99;90.99;100070.19;5077250;28;20480;-63
2022/09/25 03:54:02;;;;;;;10.30;5.33;;;;;;;12.01;90.69;100070.88;5081497;28;20440;-63
2022/09/25 03:56:29;;;;;;;13.07;5.03;;;;;;;12.00;90.51;100069.22;5081162;28;20543;-63
2022/09/25 03:58:56;;;;;;;10.60;4.70;;;;;;;12.01;90.37;100062.84;5081597;28;20472;-63
2022/09/25 04:01:24;;;;;;;10.97;4.70;;;;;;;11.98;90.24;100069.34;5081604;28;20471;-62
2022/09/25 04:03:51;;;;;;;11.57;4.30;;;;;;;11.88;90.55;100063.22;5082546;28;20472;-63
2022/09/25 04:06:19;;;;;;;12.53;4.93;;;;;;;11.72;90.62;100063.91;5081354;28;20494;-63
2022/09/25 04:08:48;;;;;;;17.30;4.73;;;;;;;11.72;90.93;100063.03;5082634;28;20460;-63
2022/09/25 04:11:16;;;;;;;13.00;4.47;;;;;;;11.64;90.71;100069.16;5080963;28;20484;-62
2022/09/25 04:13:43;;;;;;;7.30;4.57;;;;;;;11.52;91.07;100062.34;5082433;28;20463;-63
2022/09/25 04:16:11;;;;;;;8.80;4.17;;;;;;;11.48;91.12;100051.09;5081465;28;20505;-63
2022/09/25 04:18:41;;;;;;;9.30;4.30;;;;;;;11.41;91.65;100058.06;5081328;28;20652;-63
2022/09/25 04:21:09;;;;;;;8.63;4.53;;;;;;;11.36;92.01;100060.34;5081244;28;20483;-63
2022/09/25 04:23:36;;;;;;;7.47;3.90;;;;;;;11.34;92.15;100054.31;5081615;28;20509;-63
2022/09/25 04:26:05;;;;;;;10.00;3.90;;;;;;;11.31;92.28;100050.06;5081088;28;20488;-64
2022/09/25 04:28:31;;;;;;;12.33;5.70;;;;;;;11.29;92.18;100058.25;5081842;28;20468;-64
2022/09/25 04:30:58;;;;;;;11.83;4.37;;;;;;;11.20;92.61;100058.34;5081247;28;20470;-63
2022/09/25 04:36:09;;;;;;;11.23;4.30;;;;;;;11.21;92.28;100063.50;5081008;28;20554;-63
2022/09/25 04:38:36;;;;;;;14.60;3.60;;;;;;;11.25;92.19;100069.44;5081880;28;20935;-63
2022/09/25 04:41:04;;;;;;;10.93;4.10;;;;;;;11.20;91.87;100067.19;5080818;28;20492;-63
2022/09/25 04:43:32;;;;;;;11.53;3.57;;;;;;;11.19;92.07;100065.50;5080898;28;20479;-63
2022/09/25 04:46:01;;;;;;;8.20;3.43;;;;;;;11.25;92.12;100069.44;5080847;28;20476;-64
2022/09/25 04:48:28;;;;;;;11.57;3.40;;;;;;;11.20;91.69;100063.69;5081453;28;20433;-64
2022/09/25 04:50:54;;;;;;;8.70;3.60;;;;;;;11.16;91.72;100065.78;5080952;28;20499;-64
2022/09/25 04:53:21;;;;;;;8.33;3.57;;;;;;;11.17;92.06;100062.13;5080765;28;20478;-64
2022/09/25 04:55:48;;;;;;;11.70;3.70;;;;;;;11.25;91.58;100072.09;5080376;28;20468;-66
2022/09/25 04:58:16;;;;;;;19.17;3.67;;;;;;;11.27;91.35;100070.94;5080755;28;20546;-65
2022/09/25 05:00:43;;;;;;;9.90;3.43;;;;;;;11.19;91.20;100081.56;5080454;28;20507;-65
2022/09/25 05:03:09;;;;;;;14.00;3.43;;;;;;;11.23;91.07;100072.25;5080554;28;20480;-65
2022/09/25 05:05:36;;;;;;;11.20;3.10;;;;;;;11.20;90.91;100074.38;5080238;28;20476;-66
2022/09/25 05:08:03;;;;;;;9.13;3.40;;;;;;;11.14;91.02;100075.81;5080996;28;20453;-66
2022/09/25 05:10:32;;;;;;;8.10;3.70;;;;;;;11.15;91.24;100071.31;5080261;28;20468;-66
2022/09/25 05:13:00;;;;;;;10.60;3.53;;;;;;;11.17;91.16;100072.84;5080139;28;20448;-66
2022/09/25 05:15:30;;;;;;;9.67;3.83;;;;;;;11.11;90.99;100068.94;5080779;28;20487;-66
2022/09/25 05:18:01;;;;;;;8.07;4.40;;;;;;;11.14;90.96;100064.25;5080143;28;20483;-66
2022/09/25 05:20:27;;;;;;;5.60;3.07;;;;;;;11.13;90.87;100071.47;5080572;28;21222;-63
2022/09/25 05:22:55;;;;;;;9.67;3.50;;;;;;;11.16;90.40;100067.63;5080682;28;20510;-64
2022/09/25 05:25:24;;;;;;;7.33;3.57;;;;;;;11.12;90.28;100067.91;5078923;28;20444;-64
2022/09/25 05:27:51;;;;;;;11.00;3.40;;;;;;;11.10;90.25;100069.91;5079760;28;20561;-64
2022/09/25 05:30:18;;;;;;;15.93;4.43;;;;;;;11.05;90.39;100063.31;5080570;28;20464;-64
2022/09/25 05:32:49;;;;;;;10.03;3.77;;;;;;;11.04;90.36;100070.50;5080769;28;20491;-64
2022/09/25 05:35:17;;;;;;;13.23;3.63;;;;;;;11.02;90.54;100063.63;5079944;28;20427;-64
2022/09/25 05:37:43;;;;;;;14.20;3.33;;;;;;;10.99;90.72;100064.75;5080093;28;20529;-63
2022/09/25 05:40:10;;;;;;;12.27;3.53;;;;;;;10.98;90.40;100057.72;5080434;28;20464;-64
2022/09/25 05:42:37;;;;;;;10.70;3.50;;;;;;;10.98;90.62;100063.06;5080053;28;20471;-64
2022/09/25 05:45:04;;;;;;;8.17;3.90;;;;;;;10.98;90.35;100052.38;5080504;28;20479;-64
2022/09/25 05:47:31;;;;;;;11.23;3.47;;;;;;;11.01;90.61;100057.44;5078854;28;20547;-61
2022/09/25 05:49:59;;;;;;;8.97;2.67;;;;;;;11.03;90.20;100068.81;5079583;28;20445;-61
2022/09/25 05:52:26;;;;;;;7.03;3.73;;;;;;;10.95;90.41;100063.34;5079089;28;20518;-61
2022/09/25 05:54:52;;;;;;;9.90;3.10;;;;;;;10.96;90.46;100067.72;5078116;28;20452;-64
2022/09/25 05:57:19;;;;;;;11.47;2.83;;;;;;;10.98;90.06;100068.41;5078172;28;20989;-64
2022/09/25 05:59:46;;;;;;;10.53;3.60;;;;;;;11.01;90.35;100064.63;5079940;28;20816;-64
2022/09/25 06:02:13;;;;;;;6.83;3.20;;;;;;;11.11;89.92;100058.22;5079187;28;20480;-64
2022/09/25 06:04:39;;;;;;;14.00;3.40;;;;;;;11.24;89.71;100059.69;5080411;28;20440;-64
2022/09/25 06:07:08;;;;;;;13.80;3.57;;;;;;;11.27;89.38;100060.25;5079471;28;20550;-65
2022/09/25 06:09:35;;;;;;;11.70;2.80;;;;;;;11.30;88.55;100057.28;5079574;28;20514;-64
2022/09/25 06:12:02;;;;;;;13.57;3.10;;;;;;;11.31;88.44;100060.78;5078620;28;20502;-64
2022/09/25 06:14:29;;;;;;;8.53;3.00;;;;;;;11.41;87.92;100058.06;5079763;28;20452;-65
2022/09/25 06:16:56;;;;;;;6.53;2.70;;;;;;;11.38;87.80;100066.38;5078337;28;20480;-64
2022/09/25 06:19:23;;;;;;;9.63;2.73;;;;;;;11.34;87.45;100055.13;5078802;28;20940;-65
2022/09/25 06:21:49;;;;;;;10.43;3.20;;;;;;;11.37;87.55;100056.66;5078344;28;20483;-64
2022/09/25 06:24:17;;;;;;;12.50;4.47;;;;;;;11.34;87.12;100059.66;5075095;28;20456;-65
2022/09/25 06:26:44;;;;;;;8.07;3.40;;;;;;;11.38;87.22;100063.72;5058524;28;20503;-65
2022/09/25 06:29:11;;;;;;;11.73;3.63;;;;;;;11.33;87.18;100058.78;5062878;28;20527;-65
2022/09/25 06:31:38;;;;;;;7.30;3.00;;;;;;;11.47;86.83;100062.78;5077731;28;20550;-65
2022/09/25 06:34:05;;;;;;;8.87;3.07;;;;;;;11.43;86.50;100059.56;5077449;28;20443;-65
2022/09/25 06:36:32;;;;;;;4.20;2.90;;;;;;;11.34;86.19;100065.00;5094021;28;21075;-65
2022/09/25 06:38:58;;;;;;;11.60;3.17;;;;;;;11.40;86.39;100064.41;5079167;28;20480;-64
2022/09/25 06:41:26;;;;;;;8.63;3.07;;;;;;;11.57;86.45;100071.59;5077352;28;20472;-64
2022/09/25 06:43:53;;;;;;;10.63;3.00;;;;;;;11.56;85.78;100074.44;5079171;28;20455;-64
2022/09/25 06:46:20;;;;;;;6.40;3.20;;;;;;;11.70;85.94;100071.25;5078654;28;20476;-64
2022/09/25 06:48:52;;;;;;;9.43;2.73;;;;;;;11.80;85.64;100065.81;5077617;28;20494;-64
2022/09/25 06:51:19;;;;;;;6.40;2.80;;;;;;;12.00;84.53;100074.56;5077296;28;20539;-65
2022/09/25 06:53:46;;;;;;;7.20;3.83;;;;;;;12.75;82.53;100074.91;5079159;28;20452;-65
2022/09/25 06:56:12;;;;;;;11.00;2.37;;;;;;;13.99;78.42;100070.81;5077707;28;20480;-65
2022/09/25 06:58:40;;;;;;;10.23;4.17;;;;;;;14.21;74.61;100069.28;5078355;28;20510;-65
2022/09/25 07:01:10;;;;;;;10.63;2.63;;;;;;;14.48;73.23;100064.59;5077461;28;20545;-65
2022/09/25 07:03:45;;;;;;;7.90;3.20;;;;;;;14.52;71.47;100068.59;5078666;28;20448;-65
2022/09/25 07:06:13;;;;;;;6.90;2.33;;;;;;;14.42;71.18;100065.25;5077187;28;20495;-65
2022/09/25 07:08:40;;;;;;;10.00;2.50;;;;;;;14.94;69.82;100062.13;5078243;28;20460;-65
2022/09/25 07:11:07;;;;;;;8.73;2.90;;;;;;;15.28;68.28;100069.06;5077639;28;20476;-65
2022/09/25 07:13:35;;;;;;;5.40;2.13;;;;;;;15.86;66.97;100066.06;5077747;28;20464;-65
2022/09/25 07:16:05;;;;;;;6.20;2.10;;;;;;;17.49;60.72;100078.91;5076816;28;20476;-65
2022/09/25 07:18:32;;;;;;;6.17;2.53;;;;;;;19.25;54.22;100070.16;5077057;28;20499;-66
2022/09/25 07:21:03;;;;;;;12.60;2.47;;;;;;;18.12;55.59;100067.50;5075390;28;20969;-65
2022/09/25 07:23:32;;;;;;;8.67;2.10;;;;;;;18.55;55.41;100072.84;5075279;28;20463;-65
2022/09/25 07:26:04;;;;;;;10.80;3.37;;;;;;;20.22;50.51;100074.38;5077761;28;20586;-66
2022/09/25 07:28:31;;;;;;;9.70;1.70;;;;;;;20.93;46.93;100070.16;5079161;28;20464;-66
2022/09/25 07:30:58;;;;;;;6.93;2.30;;;;;;;21.43;45.55;100069.56;5081216;28;20461;-66
2022/09/25 07:33:26;;;;;;;9.10;2.03;;;;;;;22.17;44.50;100070.81;5082136;28;20803;-66
2022/09/25 07:35:55;;;;;;;3.50;1.60;;;;;;;23.62;41.25;100065.97;5081273;28;20506;-66
2022/09/25 07:38:21;;;;;;;6.60;2.07;;;;;;;21.72;44.55;100079.06;5079821;28;20479;-65
2022/09/25 07:40:48;;;;;;;10.33;2.00;;;;;;;22.51;42.96;100065.13;5080814;28;20496;-64
2022/09/25 07:43:15;;;;;;;5.53;2.00;;;;;;;23.34;41.63;100068.44;5080955;28;20448;-72
2022/09/25 07:45:52;;;;;;;5.20;1.83;;;;;;;23.52;41.05;100073.84;5080239;28;20481;-72
2022/09/25 07:48:19;;;;;;;4.57;1.60;;;;;;;23.15;41.98;100076.63;5081127;28;20529;-71
2022/09/25 07:50:49;;;;;;;4.60;1.73;;;;;;;23.70;40.87;100075.72;5080084;28;20482;-67
2022/09/25 07:53:17;;;;;;;11.07;2.10;;;;;;;22.54;42.37;100070.13;5080824;28;20455;-67
2022/09/25 07:55:43;;;;;;;5.60;1.50;;;;;;;22.26;43.30;100076.81;5078268;28;21215;-67
2022/09/25 07:58:10;;;;;;;5.47;2.10;;;;;;;23.14;41.61;100072.25;5081006;28;21275;-67
2022/09/25 08:00:39;;;;;;;7.80;2.07;;;;;;;24.63;38.57;100059.78;5081075;28;20554;-66
2022/09/25 08:03:06;;;;;;;6.37;1.70;;;;;;;24.44;38.79;100079.03;5082201;28;20443;-67
2022/09/25 08:05:33;;;;;;;6.50;1.70;;;;;;;23.26;41.02;100085.94;5080241;28;20524;-67
2022/09/25 08:08:01;;;;;;;6.73;1.70;;;;;;;23.40;42.11;100081.16;5081777;28;20507;-67
2022/09/25 08:10:28;;;;;;;6.53;1.70;;;;;;;23.56;41.34;100087.88;5081852;28;20520;-67
2022/09/25 08:12:55;;;;;;;7.73;1.60;;;;;;;24.70;39.72;100087.84;5080233;28;20459;-66
2022/09/25 08:15:22;;;;;;;4.80;1.70;;;;;;;24.32;39.87;100088.25;5081281;28;20448;-67
2022/09/25 08:17:48;;;;;;;4.73;1.30;;;;;;;23.54;41.13;100082.69;5081076;28;20485;-67
2022/09/25 08:20:15;;;;;;;4.87;1.70;;;;;;;22.26;44.01;100090.44;5081275;28;20493;-67
2022/09/25 08:22:42;;;;;;;8.50;1.67;;;;;;;19.72;50.92;100090.13;5081708;28;20470;-66
2022/09/25 08:25:11;;;;;;;4.13;1.67;;;;;;;18.79;53.57;100095.94;5081371;28;20481;-67
2022/09/25 08:27:39;;;;;;;4.60;1.80;;;;;;;18.12;56.19;100102.69;5078978;28;20458;-66
2022/09/25 08:30:08;;;;;;;7.73;1.90;;;;;;;16.86;60.20;100100.09;5082317;28;20738;-66
2022/09/25 08:32:35;;;;;;;6.17;1.80;;;;;;;16.27;63.24;100090.84;5081021;28;20479;-66
2022/09/25 08:35:02;;;;;;;6.90;1.80;;;;;;;16.79;63.74;100099.97;5081992;28;20458;-66
2022/09/25 08:37:30;;;;;;;7.60;2.13;;;;;;;17.93;58.96;100088.75;5080822;28;20486;-66
2022/09/25 08:39:57;;;;;;;5.40;1.83;;;;;;;17.42;59.09;100086.91;5081029;28;20563;-66
2022/09/25 08:42:29;;;;;;;5.00;1.90;;;;;;;18.59;56.03;100084.94;5080442;28;20504;-66
2022/09/25 08:50:25;;;;;;;3.13;1.80;;;;;;;19.44;53.17;100082.13;5079213;28;20508;-66
2022/09/25 08:53:04;;;;;;;7.73;2.50;;;;;;;19.19;55.59;100083.47;5081176;28;20455;-66
2022/09/25 08:58:21;;;;;;;6.73;1.60;;;;;;;23.16;43.65;100088.38;5081044;28;20464;-66
2022/09/25 09:00:47;;;;;;;7.97;1.77;;;;;;;23.38;43.61;100080.56;5081041;28;20478;-66
2022/09/25 09:03:15;;;;;;;8.67;2.20;;;;;;;25.17;38.98;100095.16;5081553;28;20471;-67
2022/09/25 09:05:45;;;;;;;4.33;1.60;;;;;;;22.33;44.18;100093.16;5080742;28;20966;-67
2022/09/25 09:08:14;;;;;;;4.13;1.53;;;;;;;21.61;46.55;100087.91;5080781;28;20462;-67
2022/09/25 09:10:52;;;;;;;4.40;1.93;;;;;;;21.66;47.29;100095.44;5080229;28;20474;-67
2022/09/25 09:13:24;;;;;;;6.43;1.67;;;;;;;23.23;44.10;100089.97;5080599;28;20493;-67
2022/09/25 09:15:54;;;;;;;3.60;1.37;;;;;;;23.97;42.23;100084.38;5080318;28;20700;-67
2022/09/25 09:18:23;;;;;;;3.50;1.20;;;;;;;24.40;41.53;100086.00;5079676;28;20446;-67
2022/09/25 09:20:53;;;;;;;5.63;1.83;;;;;;;24.44;41.00;100080.91;5080469;28;20474;-67
2022/09/25 09:23:21;;;;;;;7.57;1.67;;;;;;;21.65;45.99;100075.56;5081037;28;20454;-67
2022/09/25 09:25:56;;;;;;;3.40;1.40;;;;;;;19.75;51.90;100081.63;5080487;28;20490;-67
2022/09/25 09:28:47;;;;;;;3.23;1.40;;;;;;;19.92;51.47;100074.75;5080485;28;20510;-67
2022/09/25 09:31:16;;;;;;;6.57;2.07;;;;;;;21.16;49.29;100075.13;5080205;28;20512;-66
2022/09/25 09:33:52;;;;;;;4.00;1.70;;;;;;;20.88;48.72;100083.53;5080258;28;20450;-67
2022/09/25 09:36:23;;;;;;;5.43;1.30;;;;;;;19.68;51.72;100078.84;5079606;28;21035;-67
2022/09/25 09:38:58;;;;;;;6.50;1.90;;;;;;;19.63;51.67;100081.34;5080765;28;20846;-66
2022/09/25 09:41:33;;;;;;;3.03;1.20;;;;;;;19.79;51.04;100076.63;5080351;28;20478;-66
2022/09/25 09:44:18;;;;;;;2.47;1.00;;;;;;;22.64;44.78;100077.78;5080382;28;20470;-66
2022/09/25 09:46:55;;;;;;;3.40;1.17;;;;;;;21.70;45.37;100083.91;5079455;28;20538;-67
2022/09/25 09:49:28;;;;;;;4.33;1.40;;;;;;;19.87;49.24;100081.84;5079623;28;21112;-67
2022/09/25 09:51:59;;;;;;;3.40;1.80;;;;;;;19.68;50.29;100072.59;5078638;28;20484;-66
2022/09/25 09:54:30;;;;;;;6.93;2.20;;;;;;;20.08;50.87;100073.53;5080075;28;20668;-66
2022/09/25 09:56:57;;;;;;;2.30;1.00;;;;;;;20.01;49.98;100075.41;5078839;28;20472;-66
2022/09/25 09:59:30;;;;;;;7.50;1.20;;;;;;;21.94;46.28;100082.31;5079585;28;20989;-66
2022/09/25 10:02:01;;;;;;;5.23;1.40;;;;;;;21.81;45.25;100082.38;5079464;28;20535;-66
2022/09/25 10:04:32;;;;;;;3.73;1.10;;;;;;;19.77;49.04;100065.97;5080523;28;20485;-66
2022/09/25 10:07:01;;;;;;;3.20;1.60;;;;;;;19.24;52.06;100068.50;5078382;28;20504;-66
2022/09/25 10:09:28;;;;;;;5.30;1.20;;;;;;;20.61;49.27;100071.88;5080253;28;20425;-66
2022/09/25 10:11:59;;;;;;;5.63;1.80;;;;;;;21.84;44.77;100064.75;5078575;28;20505;-66
2022/09/25 10:14:33;;;;;;;2.57;1.23;;;;;;;21.43;44.94;100064.13;5079837;28;20802;-66
2022/09/25 10:17:01;;;;;;;7.33;1.50;;;;;;;22.34;44.26;100057.53;5078834;28;20487;-66
2022/09/25 10:19:29;;;;;;;3.33;1.00;;;;;;;21.41;45.86;100069.78;5079456;28;20475;-66
2022/09/25 10:22:00;;;;;;;5.90;1.80;;;;;;;19.90;49.73;100060.56;5079339;28;20543;-66
2022/09/25 10:24:48;;;;;;;3.87;1.03;;;;;;;19.21;52.11;100060.75;5079876;28;20483;-66
2022/09/25 10:27:30;;;;;;;3.30;1.30;;;;;;;18.13;53.82;100066.47;5078989;28;20509;-66
2022/09/25 10:30:17;;;;;;;5.10;2.20;;;;;;;17.84;55.03;100063.66;5080484;28;20440;-66
2022/09/25 10:32:47;;;;;;;3.73;2.00;;;;;;;17.57;55.94;100070.69;5079495;28;20942;-66
2022/09/25 10:35:15;;;;;;;5.57;1.70;;;;;;;17.56;57.04;100069.00;5079153;28;20489;-66
2022/09/25 10:37:42;;;;;;;5.03;1.57;;;;;;;17.50;58.04;100073.31;5079460;28;20469;-66
2022/09/25 10:40:24;;;;;;;2.97;1.40;;;;;;;17.55;59.08;100069.19;5079005;28;20526;-66
2022/09/25 10:43:02;;;;;;;5.83;1.40;;;;;;;20.21;50.60;100064.56;5078917;28;21293;-66
2022/09/25 10:45:32;;;;;;;3.87;1.30;;;;;;;21.75;45.25;100058.75;5079332;28;20504;-66
2022/09/25 10:50:44;;;;;;;4.17;1.20;;;;;;;23.13;42.46;100065.13;5080707;28;20474;-66
2022/09/25 10:53:27;;;;;;;3.73;1.30;;;;;;;21.45;43.96;100057.41;5080771;28;20469;-67
2022/09/25 10:56:00;;;;;;;3.30;1.50;;;;;;;20.09;48.30;100058.94;5080464;28;20507;-66
2022/09/25 10:58:32;;;;;;;3.93;1.50;;;;;;;19.16;51.47;100062.19;5080496;28;20515;-67
2022/09/25 11:01:02;;;;;;;4.70;1.23;;;;;;;17.94;52.26;100057.16;5080371;28;20573;-67
2022/09/25 11:03:33;;;;;;;2.67;1.33;;;;;;;17.51;53.53;100060.63;5080816;28;20835;-67
2022/09/25 11:06:02;;;;;;;3.53;1.03;;;;;;;16.99;55.08;100061.63;5079947;28;20505;-67
2022/09/25 11:08:33;;;;;;;3.30;1.30;;;;;;;17.16;56.61;100063.09;5080846;28;20488;-66
2022/09/25 11:11:01;;;;;;;2.43;1.80;;;;;;;16.90;57.22;100063.59;5079152;28;20472;-66
2022/09/25 11:13:32;;;;;;;3.50;2.00;;;;;;;17.30;58.18;100069.53;5078418;28;20464;-66
2022/09/25 11:16:01;;;;;;;3.50;2.00;;;;;;;17.33;57.07;100057.50;5080417;28;20475;-66
2022/09/25 11:18:35;;;;;;;4.87;2.00;;;;;;;18.38;54.94;100051.50;5079719;28;20480;-67
2022/09/25 11:21:03;;;;;;;4.93;2.00;;;;;;;20.07;51.51;100061.03;5080184;28;20484;-66
2022/09/25 11:23:34;;;;;;;5.27;1.20;;;;;;;21.09;44.99;100052.53;5080713;28;20453;-67
2022/09/25 11:26:05;;;;;;;3.73;1.27;;;;;;;21.19;45.00;100062.97;5080073;28;20474;-66
2022/09/25 11:28:35;;;;;;;6.60;2.10;;;;;;;21.73;43.08;100055.41;5080106;28;20483;-67
2022/09/25 11:31:12;;;;;;;4.53;1.97;;;;;;;22.44;41.52;100043.38;5080634;28;20467;-67
2022/09/25 11:33:43;;;;;;;2.33;1.10;;;;;;;23.16;40.25;100042.88;5080661;28;20458;-67
2022/09/25 11:36:15;;;;;;;3.40;1.07;;;;;;;24.62;38.09;100034.38;5080133;28;20474;-67
2022/09/25 11:41:40;;;;;;;2.80;1.10;;;;;;;22.64;37.60;100028.75;5062104;28;20483;-67
2022/09/25 11:44:19;;;;;;;4.03;1.43;;;;;;;20.44;43.47;100023.41;5077502;28;20463;-66
2022/09/25 11:46:53;;;;;;;3.83;1.33;;;;;;;19.94;47.15;100025.72;5078236;28;20473;-66
2022/09/25 11:49:23;;;;;;;3.10;1.13;;;;;;;18.67;50.29;100027.13;5079120;28;20462;-66
2022/09/25 11:52:04;;;;;;;4.03;1.17;;;;;;;18.28;51.84;100021.25;5079469;28;20464;-66